sensor_id;sensor_type;location;lat;lon;timestamp;P1;durP1;ratioP1;P2;durP2;ratioP2
39370;SDS011;25099;51.946;4.838;2024-01-30T00:00:26;13.15;;;11.20;;
39370;SDS011;25099;51.946;4.838;2024-01-30T00:02:52;22.67;;;11.88;;
39370;SDS011;25099;51.946;4.838;2024-01-30T00:05:18;19.27;;;11.18;;
39370;SDS011;25099;51.946;4.838;2024-01-30T00:07:43;14.70;;;10.48;;
39370;SDS011;25099;51.946;4.838;2024-01-30T00:10:09;14.95;;;11.05;;
39370;SDS011;25099;51.946;4.838;2024-01-30T00:12:34;13.32;;;10.85;;
39370;SDS011;25099;51.946;4.838;2024-01-30T00:15:00;13.60;;;10.60;;
39370;SDS011;25099;51.946;4.838;2024-01-30T00:17:26;14.38;;;10.50;;
39370;SDS011;25099;51.946;4.838;2024-01-30T00:19:51;13.95;;;11.85;;
39370;SDS011;25099;51.946;4.838;2024-01-30T00:22:17;14.77;;;10.93;;
39370;SDS011;25099;51.946;4.838;2024-01-30T00:24:42;12.73;;;10.98;;
39370;SDS011;25099;51.946;4.838;2024-01-30T00:27:08;17.40;;;10.52;;
39370;SDS011;25099;51.946;4.838;2024-01-30T00:29:34;14.68;;;11.68;;
39370;SDS011;25099;51.946;4.838;2024-01-30T00:31:59;17.25;;;11.05;;
39370;SDS011;25099;51.946;4.838;2024-01-30T00:34:25;14.65;;;10.93;;
39370;SDS011;25099;51.946;4.838;2024-01-30T00:36:50;12.73;;;10.35;;
39370;SDS011;25099;51.946;4.838;2024-01-30T00:39:16;17.90;;;10.75;;
39370;SDS011;25099;51.946;4.838;2024-01-30T00:41:44;11.85;;;10.65;;
39370;SDS011;25099;51.946;4.838;2024-01-30T00:44:10;11.23;;;10.13;;
39370;SDS011;25099;51.946;4.838;2024-01-30T00:46:35;17.08;;;10.40;;
39370;SDS011;25099;51.946;4.838;2024-01-30T00:49:01;13.30;;;10.90;;
39370;SDS011;25099;51.946;4.838;2024-01-30T00:51:27;12.15;;;10.43;;
39370;SDS011;25099;51.946;4.838;2024-01-30T00:53:54;14.48;;;10.48;;
39370;SDS011;25099;51.946;4.838;2024-01-30T00:56:20;14.65;;;11.38;;
39370;SDS011;25099;51.946;4.838;2024-01-30T00:58:46;15.30;;;10.45;;
39370;SDS011;25099;51.946;4.838;2024-01-30T01:01:11;18.75;;;10.95;;
39370;SDS011;25099;51.946;4.838;2024-01-30T01:03:38;14.85;;;10.13;;
39370;SDS011;25099;51.946;4.838;2024-01-30T01:06:06;16.08;;;10.52;;
39370;SDS011;25099;51.946;4.838;2024-01-30T01:08:32;14.93;;;11.00;;
39370;SDS011;25099;51.946;4.838;2024-01-30T01:10:57;13.90;;;10.82;;
39370;SDS011;25099;51.946;4.838;2024-01-30T01:13:23;20.15;;;11.23;;
39370;SDS011;25099;51.946;4.838;2024-01-30T01:15:49;12.93;;;10.52;;
39370;SDS011;25099;51.946;4.838;2024-01-30T01:18:14;13.57;;;10.25;;
39370;SDS011;25099;51.946;4.838;2024-01-30T01:20:40;12.88;;;9.77;;
39370;SDS011;25099;51.946;4.838;2024-01-30T01:23:05;16.48;;;11.32;;
39370;SDS011;25099;51.946;4.838;2024-01-30T01:25:31;12.18;;;10.38;;
39370;SDS011;25099;51.946;4.838;2024-01-30T01:27:56;15.95;;;10.82;;
39370;SDS011;25099;51.946;4.838;2024-01-30T01:30:22;18.35;;;9.80;;
39370;SDS011;25099;51.946;4.838;2024-01-30T01:32:48;16.23;;;10.70;;
39370;SDS011;25099;51.946;4.838;2024-01-30T01:35:20;17.13;;;10.82;;
39370;SDS011;25099;51.946;4.838;2024-01-30T01:37:51;13.77;;;10.48;;
39370;SDS011;25099;51.946;4.838;2024-01-30T01:40:22;12.82;;;10.45;;
39370;SDS011;25099;51.946;4.838;2024-01-30T01:42:49;12.00;;;9.80;;
39370;SDS011;25099;51.946;4.838;2024-01-30T01:45:18;18.98;;;10.07;;
39370;SDS011;25099;51.946;4.838;2024-01-30T01:47:45;14.73;;;10.88;;
39370;SDS011;25099;51.946;4.838;2024-01-30T01:50:15;14.00;;;10.73;;
39370;SDS011;25099;51.946;4.838;2024-01-30T01:52:44;15.98;;;10.73;;
39370;SDS011;25099;51.946;4.838;2024-01-30T01:55:12;14.35;;;10.68;;
39370;SDS011;25099;51.946;4.838;2024-01-30T01:57:39;13.05;;;10.30;;
39370;SDS011;25099;51.946;4.838;2024-01-30T02:00:06;14.93;;;10.48;;
39370;SDS011;25099;51.946;4.838;2024-01-30T02:02:35;14.05;;;10.27;;
39370;SDS011;25099;51.946;4.838;2024-01-30T02:05:01;17.60;;;10.70;;
39370;SDS011;25099;51.946;4.838;2024-01-30T02:07:27;11.77;;;10.25;;
39370;SDS011;25099;51.946;4.838;2024-01-30T02:09:53;16.77;;;10.43;;
39370;SDS011;25099;51.946;4.838;2024-01-30T02:12:20;12.05;;;10.68;;
39370;SDS011;25099;51.946;4.838;2024-01-30T02:14:48;11.77;;;9.73;;
39370;SDS011;25099;51.946;4.838;2024-01-30T02:17:15;12.55;;;9.63;;
39370;SDS011;25099;51.946;4.838;2024-01-30T02:19:41;16.42;;;11.20;;
39370;SDS011;25099;51.946;4.838;2024-01-30T02:22:07;14.20;;;9.68;;
39370;SDS011;25099;51.946;4.838;2024-01-30T02:24:34;13.90;;;9.82;;
39370;SDS011;25099;51.946;4.838;2024-01-30T02:26:59;13.07;;;9.73;;
39370;SDS011;25099;51.946;4.838;2024-01-30T02:29:25;13.23;;;9.55;;
39370;SDS011;25099;51.946;4.838;2024-01-30T02:31:50;10.32;;;9.32;;
39370;SDS011;25099;51.946;4.838;2024-01-30T02:34:18;14.25;;;9.85;;
39370;SDS011;25099;51.946;4.838;2024-01-30T02:36:44;14.80;;;9.52;;
39370;SDS011;25099;51.946;4.838;2024-01-30T02:39:10;11.57;;;9.63;;
39370;SDS011;25099;51.946;4.838;2024-01-30T02:41:36;12.23;;;9.68;;
39370;SDS011;25099;51.946;4.838;2024-01-30T02:44:02;16.73;;;10.10;;
39370;SDS011;25099;51.946;4.838;2024-01-30T02:46:28;11.57;;;9.15;;
39370;SDS011;25099;51.946;4.838;2024-01-30T02:48:54;11.20;;;9.18;;
39370;SDS011;25099;51.946;4.838;2024-01-30T02:51:19;11.13;;;9.55;;
39370;SDS011;25099;51.946;4.838;2024-01-30T02:53:45;23.75;;;9.55;;
39370;SDS011;25099;51.946;4.838;2024-01-30T02:56:11;15.73;;;10.23;;
39370;SDS011;25099;51.946;4.838;2024-01-30T02:58:38;12.40;;;9.93;;
39370;SDS011;25099;51.946;4.838;2024-01-30T03:01:04;10.63;;;9.52;;
39370;SDS011;25099;51.946;4.838;2024-01-30T03:03:30;15.07;;;9.98;;
39370;SDS011;25099;51.946;4.838;2024-01-30T03:05:55;15.23;;;9.38;;
39370;SDS011;25099;51.946;4.838;2024-01-30T03:08:21;11.80;;;9.35;;
39370;SDS011;25099;51.946;4.838;2024-01-30T03:10:47;16.58;;;9.95;;
39370;SDS011;25099;51.946;4.838;2024-01-30T03:13:12;15.73;;;9.77;;
39370;SDS011;25099;51.946;4.838;2024-01-30T03:15:38;13.85;;;9.70;;
39370;SDS011;25099;51.946;4.838;2024-01-30T03:18:04;11.90;;;9.60;;
39370;SDS011;25099;51.946;4.838;2024-01-30T03:20:29;12.82;;;8.68;;
39370;SDS011;25099;51.946;4.838;2024-01-30T03:22:55;11.30;;;9.35;;
39370;SDS011;25099;51.946;4.838;2024-01-30T03:25:21;15.63;;;9.65;;
39370;SDS011;25099;51.946;4.838;2024-01-30T03:27:47;12.98;;;9.90;;
39370;SDS011;25099;51.946;4.838;2024-01-30T03:30:12;11.57;;;9.30;;
39370;SDS011;25099;51.946;4.838;2024-01-30T03:32:38;10.95;;;9.45;;
39370;SDS011;25099;51.946;4.838;2024-01-30T03:35:03;13.18;;;10.02;;
39370;SDS011;25099;51.946;4.838;2024-01-30T03:37:31;13.18;;;9.07;;
39370;SDS011;25099;51.946;4.838;2024-01-30T03:39:56;11.35;;;9.48;;
39370;SDS011;25099;51.946;4.838;2024-01-30T03:42:22;11.75;;;9.35;;
39370;SDS011;25099;51.946;4.838;2024-01-30T03:44:48;16.05;;;9.90;;
39370;SDS011;25099;51.946;4.838;2024-01-30T03:47:16;10.93;;;8.52;;
39370;SDS011;25099;51.946;4.838;2024-01-30T03:49:42;21.33;;;8.82;;
39370;SDS011;25099;51.946;4.838;2024-01-30T03:52:07;13.43;;;9.05;;
39370;SDS011;25099;51.946;4.838;2024-01-30T03:54:33;10.25;;;8.52;;
39370;SDS011;25099;51.946;4.838;2024-01-30T03:56:59;13.52;;;9.30;;
39370;SDS011;25099;51.946;4.838;2024-01-30T03:59:25;13.82;;;8.95;;
39370;SDS011;25099;51.946;4.838;2024-01-30T04:01:50;11.05;;;9.07;;
39370;SDS011;25099;51.946;4.838;2024-01-30T04:04:18;18.02;;;9.93;;
39370;SDS011;25099;51.946;4.838;2024-01-30T04:06:44;11.70;;;8.60;;
39370;SDS011;25099;51.946;4.838;2024-01-30T04:09:12;9.95;;;9.05;;
39370;SDS011;25099;51.946;4.838;2024-01-30T04:11:38;14.68;;;9.38;;
39370;SDS011;25099;51.946;4.838;2024-01-30T04:14:04;16.88;;;9.73;;
39370;SDS011;25099;51.946;4.838;2024-01-30T04:16:29;13.15;;;9.63;;
39370;SDS011;25099;51.946;4.838;2024-01-30T04:18:56;11.52;;;9.60;;
39370;SDS011;25099;51.946;4.838;2024-01-30T04:21:22;14.25;;;10.35;;
39370;SDS011;25099;51.946;4.838;2024-01-30T04:23:50;17.63;;;8.50;;
39370;SDS011;25099;51.946;4.838;2024-01-30T04:26:16;11.80;;;8.90;;
39370;SDS011;25099;51.946;4.838;2024-01-30T04:28:43;17.02;;;9.55;;
39370;SDS011;25099;51.946;4.838;2024-01-30T04:31:09;11.18;;;8.63;;
39370;SDS011;25099;51.946;4.838;2024-01-30T04:33:35;13.65;;;9.93;;
39370;SDS011;25099;51.946;4.838;2024-01-30T04:36:01;12.70;;;9.48;;
39370;SDS011;25099;51.946;4.838;2024-01-30T04:38:28;9.80;;;8.13;;
39370;SDS011;25099;51.946;4.838;2024-01-30T04:40:53;14.00;;;9.35;;
39370;SDS011;25099;51.946;4.838;2024-01-30T04:43:19;16.95;;;9.43;;
39370;SDS011;25099;51.946;4.838;2024-01-30T04:45:45;15.73;;;9.45;;
39370;SDS011;25099;51.946;4.838;2024-01-30T04:48:10;12.50;;;8.85;;
39370;SDS011;25099;51.946;4.838;2024-01-30T04:50:36;13.57;;;9.98;;
39370;SDS011;25099;51.946;4.838;2024-01-30T04:53:01;13.65;;;9.55;;
39370;SDS011;25099;51.946;4.838;2024-01-30T04:55:27;15.90;;;9.98;;
39370;SDS011;25099;51.946;4.838;2024-01-30T04:57:53;12.07;;;9.25;;
39370;SDS011;25099;51.946;4.838;2024-01-30T05:00:18;11.95;;;9.40;;
39370;SDS011;25099;51.946;4.838;2024-01-30T05:02:44;11.52;;;9.32;;
39370;SDS011;25099;51.946;4.838;2024-01-30T05:05:09;10.57;;;9.20;;
39370;SDS011;25099;51.946;4.838;2024-01-30T05:07:36;16.08;;;9.10;;
39370;SDS011;25099;51.946;4.838;2024-01-30T05:10:01;12.30;;;9.23;;
39370;SDS011;25099;51.946;4.838;2024-01-30T05:12:28;12.82;;;8.82;;
39370;SDS011;25099;51.946;4.838;2024-01-30T05:14:53;12.18;;;8.80;;
39370;SDS011;25099;51.946;4.838;2024-01-30T05:17:19;11.63;;;8.93;;
39370;SDS011;25099;51.946;4.838;2024-01-30T05:19:44;11.88;;;9.45;;
39370;SDS011;25099;51.946;4.838;2024-01-30T05:22:10;16.60;;;9.93;;
39370;SDS011;25099;51.946;4.838;2024-01-30T05:24:40;18.60;;;10.07;;
39370;SDS011;25099;51.946;4.838;2024-01-30T05:27:06;12.80;;;8.98;;
39370;SDS011;25099;51.946;4.838;2024-01-30T05:29:32;12.32;;;8.50;;
39370;SDS011;25099;51.946;4.838;2024-01-30T05:31:58;18.13;;;8.93;;
39370;SDS011;25099;51.946;4.838;2024-01-30T05:34:23;16.27;;;10.07;;
39370;SDS011;25099;51.946;4.838;2024-01-30T05:36:49;13.13;;;9.68;;
39370;SDS011;25099;51.946;4.838;2024-01-30T05:39:14;16.20;;;9.18;;
39370;SDS011;25099;51.946;4.838;2024-01-30T05:41:40;16.52;;;9.23;;
39370;SDS011;25099;51.946;4.838;2024-01-30T05:44:06;12.52;;;9.00;;
39370;SDS011;25099;51.946;4.838;2024-01-30T05:46:31;13.73;;;9.10;;
39370;SDS011;25099;51.946;4.838;2024-01-30T05:48:57;11.02;;;9.30;;
39370;SDS011;25099;51.946;4.838;2024-01-30T05:51:22;15.95;;;10.13;;
39370;SDS011;25099;51.946;4.838;2024-01-30T05:53:48;13.43;;;9.60;;
39370;SDS011;25099;51.946;4.838;2024-01-30T05:56:13;12.10;;;8.73;;
39370;SDS011;25099;51.946;4.838;2024-01-30T05:58:40;10.65;;;8.50;;
39370;SDS011;25099;51.946;4.838;2024-01-30T06:01:08;15.52;;;10.02;;
39370;SDS011;25099;51.946;4.838;2024-01-30T06:03:34;13.55;;;9.45;;
39370;SDS011;25099;51.946;4.838;2024-01-30T06:06:00;12.40;;;9.55;;
39370;SDS011;25099;51.946;4.838;2024-01-30T06:08:26;12.10;;;9.50;;
39370;SDS011;25099;51.946;4.838;2024-01-30T06:10:51;14.32;;;9.32;;
39370;SDS011;25099;51.946;4.838;2024-01-30T06:13:17;13.68;;;9.63;;
39370;SDS011;25099;51.946;4.838;2024-01-30T06:15:43;15.35;;;9.23;;
39370;SDS011;25099;51.946;4.838;2024-01-30T06:18:08;13.32;;;8.85;;
39370;SDS011;25099;51.946;4.838;2024-01-30T06:20:34;8.50;;;7.60;;
39370;SDS011;25099;51.946;4.838;2024-01-30T06:23:00;22.25;;;9.93;;
39370;SDS011;25099;51.946;4.838;2024-01-30T06:25:26;23.45;;;11.68;;
39370;SDS011;25099;51.946;4.838;2024-01-30T06:27:51;13.63;;;9.65;;
39370;SDS011;25099;51.946;4.838;2024-01-30T06:30:17;15.10;;;9.57;;
39370;SDS011;25099;51.946;4.838;2024-01-30T06:32:43;13.68;;;9.95;;
39370;SDS011;25099;51.946;4.838;2024-01-30T06:35:08;16.60;;;11.13;;
39370;SDS011;25099;51.946;4.838;2024-01-30T06:37:35;13.63;;;10.18;;
39370;SDS011;25099;51.946;4.838;2024-01-30T06:40:01;13.68;;;9.13;;
39370;SDS011;25099;51.946;4.838;2024-01-30T06:42:27;13.20;;;9.13;;
39370;SDS011;25099;51.946;4.838;2024-01-30T06:44:53;12.18;;;10.38;;
39370;SDS011;25099;51.946;4.838;2024-01-30T06:47:18;16.05;;;10.75;;
39370;SDS011;25099;51.946;4.838;2024-01-30T06:49:44;15.90;;;10.27;;
39370;SDS011;25099;51.946;4.838;2024-01-30T06:52:10;14.38;;;9.60;;
39370;SDS011;25099;51.946;4.838;2024-01-30T06:54:36;14.65;;;10.27;;
39370;SDS011;25099;51.946;4.838;2024-01-30T06:57:01;14.60;;;9.70;;
39370;SDS011;25099;51.946;4.838;2024-01-30T06:59:27;12.85;;;9.35;;
39370;SDS011;25099;51.946;4.838;2024-01-30T07:01:53;12.75;;;9.48;;
39370;SDS011;25099;51.946;4.838;2024-01-30T07:04:19;18.73;;;9.88;;
39370;SDS011;25099;51.946;4.838;2024-01-30T07:06:44;16.85;;;10.07;;
39370;SDS011;25099;51.946;4.838;2024-01-30T07:09:10;13.13;;;9.27;;
39370;SDS011;25099;51.946;4.838;2024-01-30T07:11:35;11.45;;;9.27;;
39370;SDS011;25099;51.946;4.838;2024-01-30T07:14:01;12.63;;;8.98;;
39370;SDS011;25099;51.946;4.838;2024-01-30T07:16:29;13.25;;;9.48;;
39370;SDS011;25099;51.946;4.838;2024-01-30T07:18:55;15.40;;;10.40;;
39370;SDS011;25099;51.946;4.838;2024-01-30T07:21:21;16.23;;;9.55;;
39370;SDS011;25099;51.946;4.838;2024-01-30T07:23:52;12.00;;;9.23;;
39370;SDS011;25099;51.946;4.838;2024-01-30T07:26:18;14.57;;;9.98;;
39370;SDS011;25099;51.946;4.838;2024-01-30T07:28:44;12.65;;;9.13;;
39370;SDS011;25099;51.946;4.838;2024-01-30T07:31:09;13.20;;;9.50;;
39370;SDS011;25099;51.946;4.838;2024-01-30T07:33:35;15.60;;;10.05;;
39370;SDS011;25099;51.946;4.838;2024-01-30T07:36:00;13.35;;;8.70;;
39370;SDS011;25099;51.946;4.838;2024-01-30T07:38:26;13.40;;;8.82;;
39370;SDS011;25099;51.946;4.838;2024-01-30T07:40:52;14.30;;;9.55;;
39370;SDS011;25099;51.946;4.838;2024-01-30T07:43:17;12.68;;;8.70;;
39370;SDS011;25099;51.946;4.838;2024-01-30T07:45:45;13.73;;;9.00;;
39370;SDS011;25099;51.946;4.838;2024-01-30T07:48:10;15.98;;;8.95;;
39370;SDS011;25099;51.946;4.838;2024-01-30T07:50:36;13.75;;;9.25;;
39370;SDS011;25099;51.946;4.838;2024-01-30T07:53:02;16.42;;;9.27;;
39370;SDS011;25099;51.946;4.838;2024-01-30T07:55:27;13.02;;;8.50;;
39370;SDS011;25099;51.946;4.838;2024-01-30T07:57:54;11.98;;;9.18;;
39370;SDS011;25099;51.946;4.838;2024-01-30T08:00:21;19.67;;;9.27;;
39370;SDS011;25099;51.946;4.838;2024-01-30T08:02:52;15.75;;;9.75;;
39370;SDS011;25099;51.946;4.838;2024-01-30T08:05:21;17.33;;;9.05;;
39370;SDS011;25099;51.946;4.838;2024-01-30T08:07:49;19.63;;;9.30;;
39370;SDS011;25099;51.946;4.838;2024-01-30T08:10:15;13.57;;;9.43;;
39370;SDS011;25099;51.946;4.838;2024-01-30T08:12:41;15.80;;;10.30;;
39370;SDS011;25099;51.946;4.838;2024-01-30T08:15:06;13.98;;;9.40;;
39370;SDS011;25099;51.946;4.838;2024-01-30T08:17:32;10.57;;;9.23;;
39370;SDS011;25099;51.946;4.838;2024-01-30T08:19:58;19.90;;;10.40;;
39370;SDS011;25099;51.946;4.838;2024-01-30T08:22:24;24.33;;;10.75;;
39370;SDS011;25099;51.946;4.838;2024-01-30T08:24:50;15.55;;;9.80;;
39370;SDS011;25099;51.946;4.838;2024-01-30T08:27:15;17.83;;;9.45;;
39370;SDS011;25099;51.946;4.838;2024-01-30T08:29:41;16.95;;;10.27;;
39370;SDS011;25099;51.946;4.838;2024-01-30T08:32:07;15.98;;;9.75;;
39370;SDS011;25099;51.946;4.838;2024-01-30T08:34:34;16.52;;;9.18;;
39370;SDS011;25099;51.946;4.838;2024-01-30T08:37:00;22.55;;;9.85;;
39370;SDS011;25099;51.946;4.838;2024-01-30T08:39:26;13.73;;;9.15;;
39370;SDS011;25099;51.946;4.838;2024-01-30T08:41:51;17.70;;;9.57;;
39370;SDS011;25099;51.946;4.838;2024-01-30T08:44:17;21.65;;;9.23;;
39370;SDS011;25099;51.946;4.838;2024-01-30T08:46:43;16.13;;;9.00;;
39370;SDS011;25099;51.946;4.838;2024-01-30T08:49:12;16.27;;;9.00;;
39370;SDS011;25099;51.946;4.838;2024-01-30T08:51:38;17.80;;;11.27;;
39370;SDS011;25099;51.946;4.838;2024-01-30T08:54:04;19.15;;;10.27;;
39370;SDS011;25099;51.946;4.838;2024-01-30T08:56:30;18.15;;;9.15;;
39370;SDS011;25099;51.946;4.838;2024-01-30T08:58:55;18.20;;;9.27;;
39370;SDS011;25099;51.946;4.838;2024-01-30T09:01:21;16.35;;;10.10;;
39370;SDS011;25099;51.946;4.838;2024-01-30T09:03:46;16.60;;;9.45;;
39370;SDS011;25099;51.946;4.838;2024-01-30T09:06:12;22.73;;;9.48;;
39370;SDS011;25099;51.946;4.838;2024-01-30T09:08:38;18.25;;;9.85;;
39370;SDS011;25099;51.946;4.838;2024-01-30T09:11:11;17.85;;;9.27;;
39370;SDS011;25099;51.946;4.838;2024-01-30T09:13:37;16.27;;;9.60;;
39370;SDS011;25099;51.946;4.838;2024-01-30T09:16:03;16.90;;;9.15;;
39370;SDS011;25099;51.946;4.838;2024-01-30T09:18:29;11.88;;;9.48;;
39370;SDS011;25099;51.946;4.838;2024-01-30T09:20:55;24.08;;;10.93;;
39370;SDS011;25099;51.946;4.838;2024-01-30T09:23:20;19.92;;;10.30;;
39370;SDS011;25099;51.946;4.838;2024-01-30T09:25:46;13.68;;;9.70;;
39370;SDS011;25099;51.946;4.838;2024-01-30T09:28:12;14.13;;;9.18;;
39370;SDS011;25099;51.946;4.838;2024-01-30T09:30:38;12.55;;;9.32;;
39370;SDS011;25099;51.946;4.838;2024-01-30T09:33:03;15.50;;;8.63;;
39370;SDS011;25099;51.946;4.838;2024-01-30T09:35:29;22.90;;;8.90;;
39370;SDS011;25099;51.946;4.838;2024-01-30T09:37:55;15.40;;;9.63;;
39370;SDS011;25099;51.946;4.838;2024-01-30T09:40:22;19.67;;;8.98;;
39370;SDS011;25099;51.946;4.838;2024-01-30T09:42:47;13.80;;;9.70;;
39370;SDS011;25099;51.946;4.838;2024-01-30T09:45:15;15.43;;;9.02;;
39370;SDS011;25099;51.946;4.838;2024-01-30T09:47:45;13.60;;;9.27;;
39370;SDS011;25099;51.946;4.838;2024-01-30T09:50:12;19.83;;;9.07;;
39370;SDS011;25099;51.946;4.838;2024-01-30T09:52:39;19.05;;;9.70;;
39370;SDS011;25099;51.946;4.838;2024-01-30T09:55:05;11.45;;;8.98;;
39370;SDS011;25099;51.946;4.838;2024-01-30T09:57:32;12.52;;;9.02;;
39370;SDS011;25099;51.946;4.838;2024-01-30T09:59:58;21.90;;;10.05;;
39370;SDS011;25099;51.946;4.838;2024-01-30T10:02:23;16.05;;;9.13;;
39370;SDS011;25099;51.946;4.838;2024-01-30T10:04:50;22.00;;;10.60;;
39370;SDS011;25099;51.946;4.838;2024-01-30T10:07:16;13.38;;;9.73;;
39370;SDS011;25099;51.946;4.838;2024-01-30T10:09:42;19.52;;;9.82;;
39370;SDS011;25099;51.946;4.838;2024-01-30T10:12:11;20.05;;;10.05;;
39370;SDS011;25099;51.946;4.838;2024-01-30T10:14:42;18.92;;;9.30;;
39370;SDS011;25099;51.946;4.838;2024-01-30T10:17:08;15.70;;;8.50;;
39370;SDS011;25099;51.946;4.838;2024-01-30T10:19:35;23.10;;;9.20;;
39370;SDS011;25099;51.946;4.838;2024-01-30T10:22:01;13.88;;;8.68;;
39370;SDS011;25099;51.946;4.838;2024-01-30T10:24:28;16.85;;;8.43;;
39370;SDS011;25099;51.946;4.838;2024-01-30T10:26:54;14.95;;;7.63;;
39370;SDS011;25099;51.946;4.838;2024-01-30T10:29:20;18.13;;;8.20;;
39370;SDS011;25099;51.946;4.838;2024-01-30T10:31:46;16.90;;;7.88;;
39370;SDS011;25099;51.946;4.838;2024-01-30T10:34:31;14.75;;;8.32;;
39370;SDS011;25099;51.946;4.838;2024-01-30T10:39:37;14.80;;;7.82;;
39370;SDS011;25099;51.946;4.838;2024-01-30T10:42:04;8.13;;;5.03;;
39370;SDS011;25099;51.946;4.838;2024-01-30T10:44:34;9.65;;;5.03;;
39370;SDS011;25099;51.946;4.838;2024-01-30T10:47:06;9.82;;;4.38;;
39370;SDS011;25099;51.946;4.838;2024-01-30T10:52:01;5.00;;;2.85;;
39370;SDS011;25099;51.946;4.838;2024-01-30T10:54:30;10.65;;;3.78;;
39370;SDS011;25099;51.946;4.838;2024-01-30T10:56:57;9.02;;;4.40;;
39370;SDS011;25099;51.946;4.838;2024-01-30T10:59:28;9.73;;;3.88;;
39370;SDS011;25099;51.946;4.838;2024-01-30T11:01:56;8.15;;;2.72;;
39370;SDS011;25099;51.946;4.838;2024-01-30T11:04:23;11.07;;;2.53;;
39370;SDS011;25099;51.946;4.838;2024-01-30T11:06:50;13.00;;;1.98;;
39370;SDS011;25099;51.946;4.838;2024-01-30T11:09:16;11.38;;;1.67;;
39370;SDS011;25099;51.946;4.838;2024-01-30T11:14:25;6.00;;;1.75;;
39370;SDS011;25099;51.946;4.838;2024-01-30T11:16:57;6.50;;;1.25;;
39370;SDS011;25099;51.946;4.838;2024-01-30T11:19:24;7.38;;;1.60;;
39370;SDS011;25099;51.946;4.838;2024-01-30T11:21:55;6.63;;;2.40;;
39370;SDS011;25099;51.946;4.838;2024-01-30T11:24:24;6.45;;;1.50;;
39370;SDS011;25099;51.946;4.838;2024-01-30T11:26:55;6.20;;;1.88;;
39370;SDS011;25099;51.946;4.838;2024-01-30T11:29:27;4.47;;;1.98;;
39370;SDS011;25099;51.946;4.838;2024-01-30T11:31:53;7.35;;;2.38;;
39370;SDS011;25099;51.946;4.838;2024-01-30T11:34:20;6.43;;;2.72;;
39370;SDS011;25099;51.946;4.838;2024-01-30T11:36:53;6.95;;;2.17;;
39370;SDS011;25099;51.946;4.838;2024-01-30T11:39:27;8.98;;;2.38;;
39370;SDS011;25099;51.946;4.838;2024-01-30T11:41:54;7.82;;;3.10;;
39370;SDS011;25099;51.946;4.838;2024-01-30T11:44:20;8.00;;;3.03;;
39370;SDS011;25099;51.946;4.838;2024-01-30T11:46:49;8.23;;;3.00;;
39370;SDS011;25099;51.946;4.838;2024-01-30T11:49:16;8.88;;;3.20;;
39370;SDS011;25099;51.946;4.838;2024-01-30T11:51:42;7.13;;;2.13;;
39370;SDS011;25099;51.946;4.838;2024-01-30T11:54:10;6.32;;;2.65;;
39370;SDS011;25099;51.946;4.838;2024-01-30T11:56:36;10.10;;;3.42;;
39370;SDS011;25099;51.946;4.838;2024-01-30T11:59:02;13.00;;;2.47;;
39370;SDS011;25099;51.946;4.838;2024-01-30T12:01:28;5.20;;;1.48;;
39370;SDS011;25099;51.946;4.838;2024-01-30T12:03:55;8.35;;;2.45;;
39370;SDS011;25099;51.946;4.838;2024-01-30T12:06:21;8.45;;;2.10;;
39370;SDS011;25099;51.946;4.838;2024-01-30T12:09:00;6.80;;;2.35;;
39370;SDS011;25099;51.946;4.838;2024-01-30T12:11:29;10.02;;;2.65;;
39370;SDS011;25099;51.946;4.838;2024-01-30T12:13:55;6.32;;;2.25;;
39370;SDS011;25099;51.946;4.838;2024-01-30T12:16:21;11.68;;;1.92;;
39370;SDS011;25099;51.946;4.838;2024-01-30T12:18:47;4.00;;;1.60;;
39370;SDS011;25099;51.946;4.838;2024-01-30T12:21:15;6.13;;;1.60;;
39370;SDS011;25099;51.946;4.838;2024-01-30T12:23:41;3.42;;;1.13;;
39370;SDS011;25099;51.946;4.838;2024-01-30T12:26:07;6.10;;;1.33;;
39370;SDS011;25099;51.946;4.838;2024-01-30T12:28:33;4.35;;;1.30;;
39370;SDS011;25099;51.946;4.838;2024-01-30T12:31:02;5.15;;;1.33;;
39370;SDS011;25099;51.946;4.838;2024-01-30T12:33:30;2.63;;;0.70;;
39370;SDS011;25099;51.946;4.838;2024-01-30T12:35:56;5.97;;;0.88;;
39370;SDS011;25099;51.946;4.838;2024-01-30T12:38:23;6.88;;;1.25;;
39370;SDS011;25099;51.946;4.838;2024-01-30T12:40:50;3.15;;;1.27;;
39370;SDS011;25099;51.946;4.838;2024-01-30T12:43:20;4.15;;;1.10;;
39370;SDS011;25099;51.946;4.838;2024-01-30T12:45:46;5.50;;;1.05;;
39370;SDS011;25099;51.946;4.838;2024-01-30T12:48:12;8.13;;;1.30;;
39370;SDS011;25099;51.946;4.838;2024-01-30T12:50:38;12.88;;;1.42;;
39370;SDS011;25099;51.946;4.838;2024-01-30T12:53:03;3.95;;;0.65;;
39370;SDS011;25099;51.946;4.838;2024-01-30T12:55:29;4.07;;;1.20;;
39370;SDS011;25099;51.946;4.838;2024-01-30T12:57:55;3.58;;;0.95;;
39370;SDS011;25099;51.946;4.838;2024-01-30T13:00:21;6.43;;;1.48;;
39370;SDS011;25099;51.946;4.838;2024-01-30T13:02:47;6.60;;;1.00;;
39370;SDS011;25099;51.946;4.838;2024-01-30T13:05:13;3.95;;;0.93;;
39370;SDS011;25099;51.946;4.838;2024-01-30T13:07:39;5.22;;;1.35;;
39370;SDS011;25099;51.946;4.838;2024-01-30T13:10:05;8.48;;;1.85;;
39370;SDS011;25099;51.946;4.838;2024-01-30T13:12:31;8.98;;;1.13;;
39370;SDS011;25099;51.946;4.838;2024-01-30T13:14:58;7.55;;;1.55;;
39370;SDS011;25099;51.946;4.838;2024-01-30T13:17:25;3.38;;;0.90;;
39370;SDS011;25099;51.946;4.838;2024-01-30T13:19:51;7.82;;;1.00;;
39370;SDS011;25099;51.946;4.838;2024-01-30T13:22:18;2.97;;;1.23;;
39370;SDS011;25099;51.946;4.838;2024-01-30T13:24:46;6.10;;;1.25;;
39370;SDS011;25099;51.946;4.838;2024-01-30T13:27:12;5.75;;;1.70;;
39370;SDS011;25099;51.946;4.838;2024-01-30T13:29:38;3.70;;;1.20;;
39370;SDS011;25099;51.946;4.838;2024-01-30T13:32:03;7.60;;;1.40;;
39370;SDS011;25099;51.946;4.838;2024-01-30T13:34:29;9.52;;;1.50;;
39370;SDS011;25099;51.946;4.838;2024-01-30T13:36:55;7.65;;;1.02;;
39370;SDS011;25099;51.946;4.838;2024-01-30T13:39:20;4.65;;;1.48;;
39370;SDS011;25099;51.946;4.838;2024-01-30T13:41:46;6.28;;;1.35;;
39370;SDS011;25099;51.946;4.838;2024-01-30T13:44:13;7.38;;;1.00;;
39370;SDS011;25099;51.946;4.838;2024-01-30T13:46:41;7.35;;;1.38;;
39370;SDS011;25099;51.946;4.838;2024-01-30T13:49:06;7.25;;;1.40;;
39370;SDS011;25099;51.946;4.838;2024-01-30T13:51:32;10.43;;;1.45;;
39370;SDS011;25099;51.946;4.838;2024-01-30T13:53:58;3.83;;;1.40;;
39370;SDS011;25099;51.946;4.838;2024-01-30T13:56:23;6.65;;;1.80;;
39370;SDS011;25099;51.946;4.838;2024-01-30T13:58:50;11.07;;;2.63;;
39370;SDS011;25099;51.946;4.838;2024-01-30T14:01:16;8.98;;;1.88;;
39370;SDS011;25099;51.946;4.838;2024-01-30T14:03:41;5.95;;;1.67;;
39370;SDS011;25099;51.946;4.838;2024-01-30T14:06:07;8.60;;;2.85;;
39370;SDS011;25099;51.946;4.838;2024-01-30T14:08:33;8.55;;;2.38;;
39370;SDS011;25099;51.946;4.838;2024-01-30T14:10:58;9.52;;;2.28;;
39370;SDS011;25099;51.946;4.838;2024-01-30T14:13:24;7.60;;;1.70;;
39370;SDS011;25099;51.946;4.838;2024-01-30T14:15:50;3.53;;;1.70;;
39370;SDS011;25099;51.946;4.838;2024-01-30T14:18:17;10.95;;;2.00;;
39370;SDS011;25099;51.946;4.838;2024-01-30T14:20:42;11.93;;;2.58;;
39370;SDS011;25099;51.946;4.838;2024-01-30T14:23:08;6.00;;;2.00;;
39370;SDS011;25099;51.946;4.838;2024-01-30T14:25:34;2.63;;;1.80;;
39370;SDS011;25099;51.946;4.838;2024-01-30T14:27:59;5.70;;;2.03;;
39370;SDS011;25099;51.946;4.838;2024-01-30T14:30:25;7.53;;;2.03;;
39370;SDS011;25099;51.946;4.838;2024-01-30T14:32:50;6.90;;;1.90;;
39370;SDS011;25099;51.946;4.838;2024-01-30T14:35:16;9.93;;;1.98;;
39370;SDS011;25099;51.946;4.838;2024-01-30T14:37:41;6.65;;;2.05;;